Mehama, Oregon
Current Conditions -  °F | °C
As of 3:56 PM on Monday 20 Oct 2014 (Local Time) from KSLE Reporting Station
Broken Clouds Broken Clouds  
Wind Chill: 62°   Ceiling: 3600
Heat Index: 62°   Visibility: 10mi
Dew Point: 53°   Wind: 10mph
Humidity: 72%   Direction: 160°SSE
Pressure: 29.8"   Gusts: NA
Location:  44.79°N, 122.62°W
Report Text: KSLE 202256Z 16009KT 10SM SCT020 BKN036 BKN090 17/12 A2980 RMK AO2 SLP090 T01670117
Loading
Personal Weather Stations






























Interactive Weather Map
Tropical Storm Tracking
New forecast layout! Learn more

10-Day Weather Forecast

Advertisements
Track Severe Weather on mobile